sensor_id;sensor_type;location;lat;lon;timestamp;P1;durP1;ratioP1;P2;durP2;ratioP2
41141;SDS011;63666;52.284;20.890;2023-05-13T00:01:56;5.80;;;4.00;;
41141;SDS011;63666;52.284;20.890;2023-05-13T00:04:34;5.90;;;4.10;;
41141;SDS011;63666;52.284;20.890;2023-05-13T00:07:09;6.60;;;4.50;;
41141;SDS011;63666;52.284;20.890;2023-05-13T00:09:43;6.50;;;4.50;;
41141;SDS011;63666;52.284;20.890;2023-05-13T00:12:22;6.80;;;4.40;;
41141;SDS011;63666;52.284;20.890;2023-05-13T00:14:56;6.10;;;4.20;;
41141;SDS011;63666;52.284;20.890;2023-05-13T00:17:31;6.50;;;4.60;;
41141;SDS011;63666;52.284;20.890;2023-05-13T00:20:09;6.30;;;4.60;;
41141;SDS011;63666;52.284;20.890;2023-05-13T00:22:43;6.30;;;4.60;;
41141;SDS011;63666;52.284;20.890;2023-05-13T00:25:19;6.50;;;4.70;;
41141;SDS011;63666;52.284;20.890;2023-05-13T00:27:53;6.60;;;4.90;;
41141;SDS011;63666;52.284;20.890;2023-05-13T00:30:28;6.10;;;4.40;;
41141;SDS011;63666;52.284;20.890;2023-05-13T00:33:04;6.70;;;5.10;;
41141;SDS011;63666;52.284;20.890;2023-05-13T00:35:40;7.50;;;5.50;;
41141;SDS011;63666;52.284;20.890;2023-05-13T00:38:16;7.50;;;6.00;;
41141;SDS011;63666;52.284;20.890;2023-05-13T00:40:50;7.70;;;5.80;;
41141;SDS011;63666;52.284;20.890;2023-05-13T00:43:26;7.40;;;5.20;;
41141;SDS011;63666;52.284;20.890;2023-05-13T00:46:05;7.10;;;5.30;;
41141;SDS011;63666;52.284;20.890;2023-05-13T00:48:40;7.00;;;5.30;;
41141;SDS011;63666;52.284;20.890;2023-05-13T00:51:14;6.60;;;4.90;;
41141;SDS011;63666;52.284;20.890;2023-05-13T00:53:48;6.50;;;5.00;;
41141;SDS011;63666;52.284;20.890;2023-05-13T00:56:27;8.60;;;5.90;;
41141;SDS011;63666;52.284;20.890;2023-05-13T00:59:04;8.70;;;6.00;;
41141;SDS011;63666;52.284;20.890;2023-05-13T01:01:46;8.10;;;6.00;;
41141;SDS011;63666;52.284;20.890;2023-05-13T01:04:29;7.60;;;5.60;;
41141;SDS011;63666;52.284;20.890;2023-05-13T01:07:17;6.70;;;5.30;;
41141;SDS011;63666;52.284;20.890;2023-05-13T01:10:02;7.70;;;5.70;;
41141;SDS011;63666;52.284;20.890;2023-05-13T01:12:41;7.10;;;5.60;;
41141;SDS011;63666;52.284;20.890;2023-05-13T01:15:20;7.00;;;5.50;;
41141;SDS011;63666;52.284;20.890;2023-05-13T01:18:05;6.90;;;6.00;;
41141;SDS011;63666;52.284;20.890;2023-05-13T01:20:43;7.30;;;5.90;;
41141;SDS011;63666;52.284;20.890;2023-05-13T01:23:20;7.60;;;5.90;;
41141;SDS011;63666;52.284;20.890;2023-05-13T01:25:56;7.90;;;6.30;;
41141;SDS011;63666;52.284;20.890;2023-05-13T01:28:32;8.70;;;6.70;;
41141;SDS011;63666;52.284;20.890;2023-05-13T01:31:09;8.40;;;6.40;;
41141;SDS011;63666;52.284;20.890;2023-05-13T01:33:46;8.10;;;6.30;;
41141;SDS011;63666;52.284;20.890;2023-05-13T01:36:23;8.20;;;6.70;;
41141;SDS011;63666;52.284;20.890;2023-05-13T01:38:59;7.80;;;6.30;;
41141;SDS011;63666;52.284;20.890;2023-05-13T01:41:36;7.50;;;6.40;;
41141;SDS011;63666;52.284;20.890;2023-05-13T01:44:11;8.20;;;6.60;;
41141;SDS011;63666;52.284;20.890;2023-05-13T01:46:48;7.30;;;6.20;;
41141;SDS011;63666;52.284;20.890;2023-05-13T01:49:23;8.00;;;6.60;;
41141;SDS011;63666;52.284;20.890;2023-05-13T01:51:58;8.30;;;6.30;;
41141;SDS011;63666;52.284;20.890;2023-05-13T01:54:33;8.30;;;6.50;;
41141;SDS011;63666;52.284;20.890;2023-05-13T01:57:09;7.90;;;6.40;;
41141;SDS011;63666;52.284;20.890;2023-05-13T01:59:44;8.60;;;6.80;;
41141;SDS011;63666;52.284;20.890;2023-05-13T02:02:18;7.50;;;6.50;;
41141;SDS011;63666;52.284;20.890;2023-05-13T02:04:54;8.40;;;7.10;;
41141;SDS011;63666;52.284;20.890;2023-05-13T02:07:30;8.90;;;7.40;;
41141;SDS011;63666;52.284;20.890;2023-05-13T02:10:06;7.90;;;6.80;;
41141;SDS011;63666;52.284;20.890;2023-05-13T02:12:41;8.40;;;7.10;;
41141;SDS011;63666;52.284;20.890;2023-05-13T02:15:16;9.40;;;7.10;;
41141;SDS011;63666;52.284;20.890;2023-05-13T02:17:50;8.90;;;7.30;;
41141;SDS011;63666;52.284;20.890;2023-05-13T02:20:24;8.70;;;7.30;;
41141;SDS011;63666;52.284;20.890;2023-05-13T02:23:00;8.30;;;7.10;;
41141;SDS011;63666;52.284;20.890;2023-05-13T02:25:37;8.30;;;7.00;;
41141;SDS011;63666;52.284;20.890;2023-05-13T02:28:13;8.60;;;7.30;;
41141;SDS011;63666;52.284;20.890;2023-05-13T02:30:49;7.80;;;6.90;;
41141;SDS011;63666;52.284;20.890;2023-05-13T02:33:23;8.50;;;7.30;;
41141;SDS011;63666;52.284;20.890;2023-05-13T02:35:58;8.00;;;7.20;;
41141;SDS011;63666;52.284;20.890;2023-05-13T02:38:34;9.00;;;7.20;;
41141;SDS011;63666;52.284;20.890;2023-05-13T02:41:10;8.40;;;7.30;;
41141;SDS011;63666;52.284;20.890;2023-05-13T02:43:43;7.90;;;7.00;;
41141;SDS011;63666;52.284;20.890;2023-05-13T02:46:17;8.20;;;6.90;;
41141;SDS011;63666;52.284;20.890;2023-05-13T02:48:51;9.10;;;7.40;;
41141;SDS011;63666;52.284;20.890;2023-05-13T02:51:26;8.90;;;7.30;;
41141;SDS011;63666;52.284;20.890;2023-05-13T02:54:01;8.50;;;7.50;;
41141;SDS011;63666;52.284;20.890;2023-05-13T02:56:39;9.00;;;7.70;;
41141;SDS011;63666;52.284;20.890;2023-05-13T02:59:17;9.10;;;7.70;;
41141;SDS011;63666;52.284;20.890;2023-05-13T03:01:52;8.20;;;7.00;;
41141;SDS011;63666;52.284;20.890;2023-05-13T03:04:27;8.20;;;7.30;;
41141;SDS011;63666;52.284;20.890;2023-05-13T03:07:05;8.10;;;7.20;;
41141;SDS011;63666;52.284;20.890;2023-05-13T03:09:41;8.70;;;7.30;;
41141;SDS011;63666;52.284;20.890;2023-05-13T03:12:20;8.20;;;7.30;;
41141;SDS011;63666;52.284;20.890;2023-05-13T03:14:54;8.30;;;7.10;;
41141;SDS011;63666;52.284;20.890;2023-05-13T03:17:29;8.50;;;7.50;;
41141;SDS011;63666;52.284;20.890;2023-05-13T03:20:07;9.00;;;7.70;;
41141;SDS011;63666;52.284;20.890;2023-05-13T03:22:42;8.70;;;7.70;;
41141;SDS011;63666;52.284;20.890;2023-05-13T03:25:17;9.30;;;7.50;;
41141;SDS011;63666;52.284;20.890;2023-05-13T03:27:51;8.60;;;7.70;;
41141;SDS011;63666;52.284;20.890;2023-05-13T03:30:26;9.30;;;7.70;;
41141;SDS011;63666;52.284;20.890;2023-05-13T03:33:02;8.70;;;7.80;;
41141;SDS011;63666;52.284;20.890;2023-05-13T03:35:37;8.70;;;7.80;;
41141;SDS011;63666;52.284;20.890;2023-05-13T03:38:11;8.90;;;7.90;;
41141;SDS011;63666;52.284;20.890;2023-05-13T03:40:46;9.30;;;8.10;;
41141;SDS011;63666;52.284;20.890;2023-05-13T03:43:20;9.00;;;8.10;;
41141;SDS011;63666;52.284;20.890;2023-05-13T03:45:53;8.60;;;7.70;;
41141;SDS011;63666;52.284;20.890;2023-05-13T03:48:29;9.10;;;7.90;;
41141;SDS011;63666;52.284;20.890;2023-05-13T03:51:04;9.20;;;8.30;;
41141;SDS011;63666;52.284;20.890;2023-05-13T03:53:40;8.70;;;7.50;;
41141;SDS011;63666;52.284;20.890;2023-05-13T03:56:15;8.60;;;7.70;;
41141;SDS011;63666;52.284;20.890;2023-05-13T03:58:51;8.30;;;7.40;;
41141;SDS011;63666;52.284;20.890;2023-05-13T04:01:26;9.50;;;7.90;;
41141;SDS011;63666;52.284;20.890;2023-05-13T04:04:01;8.60;;;7.60;;
41141;SDS011;63666;52.284;20.890;2023-05-13T04:06:38;9.40;;;8.40;;
41141;SDS011;63666;52.284;20.890;2023-05-13T04:09:13;9.40;;;8.10;;
41141;SDS011;63666;52.284;20.890;2023-05-13T04:11:51;8.90;;;8.00;;
41141;SDS011;63666;52.284;20.890;2023-05-13T04:14:32;9.00;;;8.10;;
41141;SDS011;63666;52.284;20.890;2023-05-13T04:17:06;9.50;;;8.50;;
41141;SDS011;63666;52.284;20.890;2023-05-13T04:19:43;9.40;;;8.40;;
41141;SDS011;63666;52.284;20.890;2023-05-13T04:22:18;9.50;;;8.30;;
41141;SDS011;63666;52.284;20.890;2023-05-13T04:24:54;9.50;;;8.40;;
41141;SDS011;63666;52.284;20.890;2023-05-13T04:27:31;9.00;;;8.10;;
41141;SDS011;63666;52.284;20.890;2023-05-13T04:30:07;9.30;;;8.20;;
41141;SDS011;63666;52.284;20.890;2023-05-13T04:32:44;9.10;;;8.00;;
41141;SDS011;63666;52.284;20.890;2023-05-13T04:35:20;9.50;;;8.30;;
41141;SDS011;63666;52.284;20.890;2023-05-13T04:37:56;9.10;;;8.00;;
41141;SDS011;63666;52.284;20.890;2023-05-13T04:40:33;9.20;;;8.20;;
41141;SDS011;63666;52.284;20.890;2023-05-13T04:43:12;8.90;;;8.00;;
41141;SDS011;63666;52.284;20.890;2023-05-13T04:45:47;9.20;;;8.00;;
41141;SDS011;63666;52.284;20.890;2023-05-13T04:48:21;8.80;;;7.90;;
41141;SDS011;63666;52.284;20.890;2023-05-13T04:50:58;9.10;;;8.20;;
41141;SDS011;63666;52.284;20.890;2023-05-13T04:53:34;9.50;;;8.30;;
41141;SDS011;63666;52.284;20.890;2023-05-13T04:56:09;9.00;;;8.00;;
41141;SDS011;63666;52.284;20.890;2023-05-13T04:58:44;9.50;;;8.40;;
41141;SDS011;63666;52.284;20.890;2023-05-13T05:01:20;9.00;;;8.00;;
41141;SDS011;63666;52.284;20.890;2023-05-13T05:03:57;9.40;;;8.10;;
41141;SDS011;63666;52.284;20.890;2023-05-13T05:06:33;9.20;;;8.10;;
41141;SDS011;63666;52.284;20.890;2023-05-13T05:09:08;9.10;;;8.20;;
41141;SDS011;63666;52.284;20.890;2023-05-13T05:11:42;9.40;;;8.40;;
41141;SDS011;63666;52.284;20.890;2023-05-13T05:14:18;9.40;;;8.40;;
41141;SDS011;63666;52.284;20.890;2023-05-13T05:16:55;9.10;;;8.20;;
41141;SDS011;63666;52.284;20.890;2023-05-13T05:19:32;9.30;;;8.10;;
41141;SDS011;63666;52.284;20.890;2023-05-13T05:22:06;9.50;;;8.50;;
41141;SDS011;63666;52.284;20.890;2023-05-13T05:24:41;9.70;;;8.60;;
41141;SDS011;63666;52.284;20.890;2023-05-13T05:27:19;9.50;;;8.50;;
41141;SDS011;63666;52.284;20.890;2023-05-13T05:29:55;9.80;;;8.80;;
41141;SDS011;63666;52.284;20.890;2023-05-13T05:32:29;9.30;;;8.20;;
41141;SDS011;63666;52.284;20.890;2023-05-13T05:35:04;9.70;;;8.20;;
41141;SDS011;63666;52.284;20.890;2023-05-13T05:37:41;9.20;;;8.20;;
41141;SDS011;63666;52.284;20.890;2023-05-13T05:40:17;9.30;;;8.30;;
41141;SDS011;63666;52.284;20.890;2023-05-13T05:42:53;9.00;;;7.80;;
41141;SDS011;63666;52.284;20.890;2023-05-13T05:45:31;9.00;;;8.00;;
41141;SDS011;63666;52.284;20.890;2023-05-13T05:48:07;9.50;;;8.50;;
41141;SDS011;63666;52.284;20.890;2023-05-13T05:50:41;9.40;;;8.30;;
41141;SDS011;63666;52.284;20.890;2023-05-13T05:53:21;9.10;;;8.10;;
41141;SDS011;63666;52.284;20.890;2023-05-13T05:55:56;9.40;;;8.40;;
41141;SDS011;63666;52.284;20.890;2023-05-13T05:58:33;9.50;;;8.20;;
41141;SDS011;63666;52.284;20.890;2023-05-13T06:01:13;9.10;;;7.90;;
41141;SDS011;63666;52.284;20.890;2023-05-13T06:06:24;9.40;;;8.30;;
41141;SDS011;63666;52.284;20.890;2023-05-13T06:09:01;9.50;;;8.10;;
41141;SDS011;63666;52.284;20.890;2023-05-13T06:11:35;8.70;;;7.70;;
41141;SDS011;63666;52.284;20.890;2023-05-13T06:14:10;8.90;;;8.00;;
41141;SDS011;63666;52.284;20.890;2023-05-13T06:16:45;9.70;;;8.30;;
41141;SDS011;63666;52.284;20.890;2023-05-13T06:19:23;9.10;;;8.10;;
41141;SDS011;63666;52.284;20.890;2023-05-13T06:22:00;9.30;;;8.10;;
41141;SDS011;63666;52.284;20.890;2023-05-13T06:24:34;9.40;;;8.30;;
41141;SDS011;63666;52.284;20.890;2023-05-13T06:27:10;9.20;;;8.00;;
41141;SDS011;63666;52.284;20.890;2023-05-13T06:29:47;9.70;;;8.10;;
41141;SDS011;63666;52.284;20.890;2023-05-13T06:32:24;8.50;;;7.60;;
41141;SDS011;63666;52.284;20.890;2023-05-13T06:34:57;9.10;;;8.00;;
41141;SDS011;63666;52.284;20.890;2023-05-13T06:37:32;9.00;;;7.70;;
41141;SDS011;63666;52.284;20.890;2023-05-13T06:40:08;8.60;;;7.50;;
41141;SDS011;63666;52.284;20.890;2023-05-13T06:42:42;8.70;;;7.70;;
41141;SDS011;63666;52.284;20.890;2023-05-13T06:45:18;8.70;;;7.60;;
41141;SDS011;63666;52.284;20.890;2023-05-13T06:47:55;8.90;;;7.70;;
41141;SDS011;63666;52.284;20.890;2023-05-13T06:50:30;8.80;;;7.40;;
41141;SDS011;63666;52.284;20.890;2023-05-13T06:53:04;8.50;;;7.40;;
41141;SDS011;63666;52.284;20.890;2023-05-13T06:55:42;9.30;;;7.60;;
41141;SDS011;63666;52.284;20.890;2023-05-13T06:58:16;9.00;;;7.60;;
41141;SDS011;63666;52.284;20.890;2023-05-13T07:00:50;8.70;;;7.70;;
41141;SDS011;63666;52.284;20.890;2023-05-13T07:03:24;8.70;;;7.50;;
41141;SDS011;63666;52.284;20.890;2023-05-13T07:05:57;8.00;;;7.20;;
41141;SDS011;63666;52.284;20.890;2023-05-13T07:08:31;8.50;;;7.60;;
41141;SDS011;63666;52.284;20.890;2023-05-13T07:11:04;9.10;;;7.60;;
41141;SDS011;63666;52.284;20.890;2023-05-13T07:13:37;8.50;;;7.40;;
41141;SDS011;63666;52.284;20.890;2023-05-13T07:16:12;9.80;;;7.70;;
41141;SDS011;63666;52.284;20.890;2023-05-13T07:18:45;9.40;;;7.30;;
41141;SDS011;63666;52.284;20.890;2023-05-13T07:21:18;9.30;;;8.10;;
41141;SDS011;63666;52.284;20.890;2023-05-13T07:23:52;9.40;;;7.60;;
41141;SDS011;63666;52.284;20.890;2023-05-13T07:26:25;9.10;;;7.30;;
41141;SDS011;63666;52.284;20.890;2023-05-13T07:28:58;9.50;;;8.00;;
41141;SDS011;63666;52.284;20.890;2023-05-13T07:31:32;9.80;;;7.90;;
41141;SDS011;63666;52.284;20.890;2023-05-13T07:34:05;9.70;;;7.90;;
41141;SDS011;63666;52.284;20.890;2023-05-13T07:36:38;10.20;;;8.00;;
41141;SDS011;63666;52.284;20.890;2023-05-13T07:39:11;9.30;;;7.70;;
41141;SDS011;63666;52.284;20.890;2023-05-13T07:41:44;10.70;;;8.10;;
41141;SDS011;63666;52.284;20.890;2023-05-13T07:44:18;8.90;;;7.30;;
41141;SDS011;63666;52.284;20.890;2023-05-13T07:46:51;10.20;;;7.60;;
41141;SDS011;63666;52.284;20.890;2023-05-13T07:49:25;10.40;;;7.90;;
41141;SDS011;63666;52.284;20.890;2023-05-13T07:51:58;9.70;;;7.60;;
41141;SDS011;63666;52.284;20.890;2023-05-13T07:54:31;9.60;;;7.80;;
41141;SDS011;63666;52.284;20.890;2023-05-13T07:57:05;10.20;;;7.40;;
41141;SDS011;63666;52.284;20.890;2023-05-13T07:59:38;11.60;;;7.50;;
41141;SDS011;63666;52.284;20.890;2023-05-13T08:02:14;9.80;;;7.30;;
41141;SDS011;63666;52.284;20.890;2023-05-13T08:04:49;9.30;;;7.40;;
41141;SDS011;63666;52.284;20.890;2023-05-13T08:07:22;8.90;;;7.00;;
41141;SDS011;63666;52.284;20.890;2023-05-13T08:09:55;9.00;;;6.80;;
41141;SDS011;63666;52.284;20.890;2023-05-13T08:12:28;9.90;;;7.20;;
41141;SDS011;63666;52.284;20.890;2023-05-13T08:15:02;8.90;;;6.90;;
41141;SDS011;63666;52.284;20.890;2023-05-13T08:17:37;9.20;;;7.10;;
41141;SDS011;63666;52.284;20.890;2023-05-13T08:20:12;8.60;;;7.20;;
41141;SDS011;63666;52.284;20.890;2023-05-13T08:22:45;9.20;;;6.90;;
41141;SDS011;63666;52.284;20.890;2023-05-13T08:25:18;8.40;;;6.70;;
41141;SDS011;63666;52.284;20.890;2023-05-13T08:27:52;8.60;;;6.90;;
41141;SDS011;63666;52.284;20.890;2023-05-13T08:30:25;8.60;;;6.60;;
41141;SDS011;63666;52.284;20.890;2023-05-13T08:32:58;7.90;;;6.00;;
41141;SDS011;63666;52.284;20.890;2023-05-13T08:35:32;8.20;;;6.90;;
41141;SDS011;63666;52.284;20.890;2023-05-13T08:38:07;9.10;;;6.50;;
41141;SDS011;63666;52.284;20.890;2023-05-13T08:40:42;7.70;;;6.00;;
41141;SDS011;63666;52.284;20.890;2023-05-13T08:43:15;7.80;;;5.90;;
41141;SDS011;63666;52.284;20.890;2023-05-13T08:45:51;7.50;;;6.00;;
41141;SDS011;63666;52.284;20.890;2023-05-13T08:48:25;8.40;;;6.10;;
41141;SDS011;63666;52.284;20.890;2023-05-13T08:50:59;8.00;;;6.20;;
41141;SDS011;63666;52.284;20.890;2023-05-13T08:53:34;8.40;;;6.20;;
41141;SDS011;63666;52.284;20.890;2023-05-13T08:56:09;7.20;;;5.90;;
41141;SDS011;63666;52.284;20.890;2023-05-13T08:58:43;7.60;;;5.60;;
41141;SDS011;63666;52.284;20.890;2023-05-13T09:01:17;8.20;;;6.00;;
41141;SDS011;63666;52.284;20.890;2023-05-13T09:03:56;8.00;;;5.90;;
41141;SDS011;63666;52.284;20.890;2023-05-13T09:06:32;7.70;;;5.70;;
41141;SDS011;63666;52.284;20.890;2023-05-13T09:09:05;7.80;;;5.40;;
41141;SDS011;63666;52.284;20.890;2023-05-13T09:11:39;9.20;;;5.90;;
41141;SDS011;63666;52.284;20.890;2023-05-13T09:14:14;6.80;;;5.70;;
41141;SDS011;63666;52.284;20.890;2023-05-13T09:16:51;7.00;;;5.20;;
41141;SDS011;63666;52.284;20.890;2023-05-13T09:19:29;7.60;;;5.30;;
41141;SDS011;63666;52.284;20.890;2023-05-13T09:22:04;6.50;;;5.20;;
41141;SDS011;63666;52.284;20.890;2023-05-13T09:24:39;7.30;;;5.20;;
41141;SDS011;63666;52.284;20.890;2023-05-13T09:27:36;7.30;;;5.10;;
41141;SDS011;63666;52.284;20.890;2023-05-13T09:30:11;6.50;;;5.00;;
41141;SDS011;63666;52.284;20.890;2023-05-13T09:32:45;6.90;;;4.90;;
41141;SDS011;63666;52.284;20.890;2023-05-13T09:35:38;6.30;;;4.70;;
41141;SDS011;63666;52.284;20.890;2023-05-13T09:38:19;6.20;;;4.60;;
41141;SDS011;63666;52.284;20.890;2023-05-13T09:40:54;5.80;;;4.40;;
41141;SDS011;63666;52.284;20.890;2023-05-13T09:43:31;5.70;;;4.30;;
41141;SDS011;63666;52.284;20.890;2023-05-13T09:46:07;6.50;;;4.20;;
41141;SDS011;63666;52.284;20.890;2023-05-13T09:48:43;6.80;;;4.40;;
41141;SDS011;63666;52.284;20.890;2023-05-13T09:51:18;6.00;;;3.90;;
41141;SDS011;63666;52.284;20.890;2023-05-13T09:53:55;7.60;;;4.20;;
41141;SDS011;63666;52.284;20.890;2023-05-13T09:56:36;6.50;;;4.10;;
41141;SDS011;63666;52.284;20.890;2023-05-13T09:59:10;5.70;;;4.00;;
41141;SDS011;63666;52.284;20.890;2023-05-13T10:01:45;5.30;;;3.80;;
41141;SDS011;63666;52.284;20.890;2023-05-13T10:04:19;6.20;;;3.60;;
41141;SDS011;63666;52.284;20.890;2023-05-13T10:06:53;5.50;;;3.70;;
41141;SDS011;63666;52.284;20.890;2023-05-13T10:09:30;6.00;;;3.90;;
41141;SDS011;63666;52.284;20.890;2023-05-13T10:12:08;6.10;;;3.80;;
41141;SDS011;63666;52.284;20.890;2023-05-13T10:14:44;5.10;;;3.60;;
41141;SDS011;63666;52.284;20.890;2023-05-13T10:17:20;5.80;;;3.60;;
41141;SDS011;63666;52.284;20.890;2023-05-13T10:19:55;5.10;;;3.40;;
41141;SDS011;63666;52.284;20.890;2023-05-13T10:22:31;5.10;;;3.30;;
41141;SDS011;63666;52.284;20.890;2023-05-13T10:25:06;4.90;;;3.40;;
41141;SDS011;63666;52.284;20.890;2023-05-13T10:27:42;5.70;;;3.30;;
41141;SDS011;63666;52.284;20.890;2023-05-13T10:30:17;4.70;;;3.20;;
41141;SDS011;63666;52.284;20.890;2023-05-13T10:32:57;5.20;;;3.20;;
41141;SDS011;63666;52.284;20.890;2023-05-13T10:35:34;5.30;;;3.20;;
41141;SDS011;63666;52.284;20.890;2023-05-13T10:38:19;4.60;;;3.20;;
41141;SDS011;63666;52.284;20.890;2023-05-13T10:41:13;4.70;;;3.00;;
41141;SDS011;63666;52.284;20.890;2023-05-13T10:46:35;4.60;;;3.00;;
41141;SDS011;63666;52.284;20.890;2023-05-13T10:49:14;4.70;;;3.00;;
41141;SDS011;63666;52.284;20.890;2023-05-13T10:51:48;4.50;;;2.90;;
41141;SDS011;63666;52.284;20.890;2023-05-13T10:54:23;4.30;;;2.70;;
41141;SDS011;63666;52.284;20.890;2023-05-13T10:56:58;4.50;;;2.90;;
41141;SDS011;63666;52.284;20.890;2023-05-13T10:59:33;4.80;;;2.70;;
41141;SDS011;63666;52.284;20.890;2023-05-13T11:02:22;4.90;;;2.80;;
41141;SDS011;63666;52.284;20.890;2023-05-13T11:05:02;4.50;;;2.80;;
41141;SDS011;63666;52.284;20.890;2023-05-13T11:07:41;4.50;;;2.60;;
41141;SDS011;63666;52.284;20.890;2023-05-13T11:10:28;4.70;;;2.60;;
41141;SDS011;63666;52.284;20.890;2023-05-13T11:13:20;4.20;;;2.50;;
41141;SDS011;63666;52.284;20.890;2023-05-13T11:15:54;5.80;;;2.80;;
41141;SDS011;63666;52.284;20.890;2023-05-13T11:18:33;4.10;;;2.30;;
41141;SDS011;63666;52.284;20.890;2023-05-13T11:21:09;6.00;;;2.70;;
41141;SDS011;63666;52.284;20.890;2023-05-13T11:23:54;4.30;;;2.50;;
41141;SDS011;63666;52.284;20.890;2023-05-13T11:26:44;4.70;;;2.30;;
41141;SDS011;63666;52.284;20.890;2023-05-13T11:29:30;4.10;;;2.40;;
41141;SDS011;63666;52.284;20.890;2023-05-13T11:32:05;4.50;;;2.40;;
41141;SDS011;63666;52.284;20.890;2023-05-13T11:34:50;4.20;;;2.40;;
41141;SDS011;63666;52.284;20.890;2023-05-13T11:37:26;4.30;;;2.40;;
41141;SDS011;63666;52.284;20.890;2023-05-13T11:40:03;4.40;;;2.20;;
41141;SDS011;63666;52.284;20.890;2023-05-13T11:42:39;4.70;;;2.40;;
41141;SDS011;63666;52.284;20.890;2023-05-13T11:45:14;4.60;;;2.20;;
41141;SDS011;63666;52.284;20.890;2023-05-13T11:47:50;4.40;;;2.50;;
41141;SDS011;63666;52.284;20.890;2023-05-13T11:50:26;5.90;;;2.20;;
41141;SDS011;63666;52.284;20.890;2023-05-13T11:53:03;4.70;;;2.30;;
41141;SDS011;63666;52.284;20.890;2023-05-13T11:55:39;4.10;;;2.20;;
41141;SDS011;63666;52.284;20.890;2023-05-13T11:58:13;4.90;;;2.30;;
41141;SDS011;63666;52.284;20.890;2023-05-13T12:00:48;4.20;;;2.20;;
41141;SDS011;63666;52.284;20.890;2023-05-13T12:03:26;4.70;;;2.40;;
41141;SDS011;63666;52.284;20.890;2023-05-13T12:06:02;4.30;;;2.20;;
41141;SDS011;63666;52.284;20.890;2023-05-13T12:08:43;4.30;;;2.50;;
41141;SDS011;63666;52.284;20.890;2023-05-13T12:11:17;4.40;;;2.30;;
41141;SDS011;63666;52.284;20.890;2023-05-13T12:13:50;4.00;;;1.90;;
41141;SDS011;63666;52.284;20.890;2023-05-13T12:16:24;4.10;;;2.10;;
41141;SDS011;63666;52.284;20.890;2023-05-13T12:19:00;4.00;;;2.20;;
41141;SDS011;63666;52.284;20.890;2023-05-13T12:21:39;3.80;;;2.10;;
41141;SDS011;63666;52.284;20.890;2023-05-13T12:24:21;4.30;;;2.50;;
41141;SDS011;63666;52.284;20.890;2023-05-13T12:27:05;4.40;;;2.40;;
41141;SDS011;63666;52.284;20.890;2023-05-13T12:29:41;4.30;;;2.30;;
41141;SDS011;63666;52.284;20.890;2023-05-13T12:32:16;4.80;;;2.30;;
41141;SDS011;63666;52.284;20.890;2023-05-13T12:34:50;4.10;;;2.30;;
41141;SDS011;63666;52.284;20.890;2023-05-13T12:37:24;4.40;;;2.30;;
41141;SDS011;63666;52.284;20.890;2023-05-13T12:40:11;3.80;;;2.20;;
41141;SDS011;63666;52.284;20.890;2023-05-13T12:42:46;3.70;;;2.10;;
41141;SDS011;63666;52.284;20.890;2023-05-13T12:45:20;3.80;;;2.10;;
41141;SDS011;63666;52.284;20.890;2023-05-13T12:47:55;3.90;;;2.00;;
41141;SDS011;63666;52.284;20.890;2023-05-13T12:50:29;3.80;;;2.10;;
41141;SDS011;63666;52.284;20.890;2023-05-13T12:53:02;4.00;;;2.10;;
41141;SDS011;63666;52.284;20.890;2023-05-13T12:55:35;4.30;;;2.30;;
41141;SDS011;63666;52.284;20.890;2023-05-13T12:58:09;4.20;;;2.60;;
41141;SDS011;63666;52.284;20.890;2023-05-13T13:00:44;4.50;;;2.60;;
41141;SDS011;63666;52.284;20.890;2023-05-13T13:03:17;4.90;;;3.00;;
41141;SDS011;63666;52.284;20.890;2023-05-13T13:05:53;4.30;;;2.90;;
41141;SDS011;63666;52.284;20.890;2023-05-13T13:08:27;4.10;;;2.50;;
41141;SDS011;63666;52.284;20.890;2023-05-13T13:11:01;4.40;;;2.50;;
41141;SDS011;63666;52.284;20.890;2023-05-13T13:13:34;4.70;;;2.60;;
41141;SDS011;63666;52.284;20.890;2023-05-13T13:16:09;3.80;;;2.30;;
41141;SDS011;63666;52.284;20.890;2023-05-13T13:18:47;4.60;;;2.40;;
41141;SDS011;63666;52.284;20.890;2023-05-13T13:21:26;4.70;;;2.30;;
41141;SDS011;63666;52.284;20.890;2023-05-13T13:24:03;4.70;;;2.70;;
41141;SDS011;63666;52.284;20.890;2023-05-13T13:26:37;4.10;;;2.50;;
41141;SDS011;63666;52.284;20.890;2023-05-13T13:29:10;4.30;;;2.30;;
41141;SDS011;63666;52.284;20.890;2023-05-13T13:31:43;4.20;;;2.40;;
41141;SDS011;63666;52.284;20.890;2023-05-13T13:34:17;4.60;;;2.50;;
41141;SDS011;63666;52.284;20.890;2023-05-13T13:36:51;4.00;;;2.20;;
41141;SDS011;63666;52.284;20.890;2023-05-13T13:39:26;4.10;;;2.40;;
41141;SDS011;63666;52.284;20.890;2023-05-13T13:42:02;4.20;;;2.30;;
41141;SDS011;63666;52.284;20.890;2023-05-13T13:44:36;3.70;;;2.10;;
41141;SDS011;63666;52.284;20.890;2023-05-13T13:47:09;3.80;;;2.10;;
41141;SDS011;63666;52.284;20.890;2023-05-13T13:49:43;3.50;;;2.00;;
41141;SDS011;63666;52.284;20.890;2023-05-13T13:52:16;3.90;;;2.20;;
41141;SDS011;63666;52.284;20.890;2023-05-13T13:54:52;3.70;;;2.20;;
41141;SDS011;63666;52.284;20.890;2023-05-13T13:57:25;3.70;;;2.10;;
41141;SDS011;63666;52.284;20.890;2023-05-13T13:59:59;3.90;;;2.10;;
41141;SDS011;63666;52.284;20.890;2023-05-13T14:02:33;4.60;;;2.20;;
41141;SDS011;63666;52.284;20.890;2023-05-13T14:05:08;3.90;;;2.10;;
41141;SDS011;63666;52.284;20.890;2023-05-13T14:07:41;3.80;;;2.10;;
41141;SDS011;63666;52.284;20.890;2023-05-13T14:10:15;3.80;;;2.30;;
41141;SDS011;63666;52.284;20.890;2023-05-13T14:12:49;3.80;;;2.20;;
41141;SDS011;63666;52.284;20.890;2023-05-13T14:15:22;4.00;;;2.20;;
41141;SDS011;63666;52.284;20.890;2023-05-13T14:17:58;4.10;;;2.30;;
41141;SDS011;63666;52.284;20.890;2023-05-13T14:20:31;4.10;;;2.10;;
41141;SDS011;63666;52.284;20.890;2023-05-13T14:23:05;4.30;;;2.20;;
41141;SDS011;63666;52.284;20.890;2023-05-13T14:25:38;4.30;;;2.40;;
41141;SDS011;63666;52.284;20.890;2023-05-13T14:28:11;5.20;;;2.30;;
41141;SDS011;63666;52.284;20.890;2023-05-13T14:30:44;4.70;;;2.20;;
41141;SDS011;63666;52.284;20.890;2023-05-13T14:33:18;4.60;;;2.40;;
41141;SDS011;63666;52.284;20.890;2023-05-13T14:35:51;4.80;;;2.40;;
41141;SDS011;63666;52.284;20.890;2023-05-13T14:38:24;5.40;;;2.20;;
41141;SDS011;63666;52.284;20.890;2023-05-13T14:40:57;5.00;;;2.40;;
41141;SDS011;63666;52.284;20.890;2023-05-13T14:43:30;5.70;;;2.50;;
41141;SDS011;63666;52.284;20.890;2023-05-13T14:46:04;7.40;;;2.30;;
41141;SDS011;63666;52.284;20.890;2023-05-13T14:48:37;6.40;;;2.20;;
41141;SDS011;63666;52.284;20.890;2023-05-13T14:51:12;7.10;;;2.60;;
41141;SDS011;63666;52.284;20.890;2023-05-13T14:53:45;5.60;;;2.30;;
41141;SDS011;63666;52.284;20.890;2023-05-13T14:56:18;7.50;;;2.20;;
41141;SDS011;63666;52.284;20.890;2023-05-13T14:58:51;4.70;;;2.20;;
41141;SDS011;63666;52.284;20.890;2023-05-13T15:01:26;6.50;;;2.40;;
41141;SDS011;63666;52.284;20.890;2023-05-13T15:04:00;5.20;;;2.40;;
41141;SDS011;63666;52.284;20.890;2023-05-13T15:06:33;4.30;;;1.90;;
41141;SDS011;63666;52.284;20.890;2023-05-13T15:09:07;4.20;;;2.10;;
41141;SDS011;63666;52.284;20.890;2023-05-13T15:11:40;5.00;;;2.10;;
41141;SDS011;63666;52.284;20.890;2023-05-13T15:14:14;4.50;;;2.30;;
41141;SDS011;63666;52.284;20.890;2023-05-13T15:16:47;4.10;;;2.30;;
41141;SDS011;63666;52.284;20.890;2023-05-13T15:19:20;4.80;;;2.20;;
41141;SDS011;63666;52.284;20.890;2023-05-13T15:21:54;5.60;;;2.30;;
41141;SDS011;63666;52.284;20.890;2023-05-13T15:24:27;4.60;;;2.30;;
41141;SDS011;63666;52.284;20.890;2023-05-13T15:27:00;4.90;;;2.20;;
41141;SDS011;63666;52.284;20.890;2023-05-13T15:29:34;4.40;;;2.10;;